Terminal Aerodrome Forecast
Issued by NWS

Home | Current Version | Previous Version | Text Only | Print | Product List | Glossary On
Versions: 1 2 3 4 5 6 7 8 9 10 11 12 13 14 15 16
431
FTUS44 KTSA 291720
TAFBVO
TAF
KBVO 291720Z 2918/3018 05005KT P6SM BKN250
     FM292000 12007KT P6SM SCT050 BKN250
     FM300200 VRB03KT P6SM SCT050 BKN250 PROB30 3006/3012 5SM -TSRA
      BKN025CB
     FM301200 VRB03KT P6SM BKN025 PROB30 3012/3018 5SM -TSRA
      BKN025CB=

USA.gov is the U.S. government's official web portal to all federal, state and local government web resources and services.